M I D A S
Marine Information and Data Acquisition System
Tripno 989 of the Zeeleeuw from 2005-11-28 07:35:38 to 2005-11-28 14:38:53
Back to CruiseResearch ActivitiesStationsMapUnderway DataData graphs

EquipmentUnitsComment
TimeDGPSUTC
LatitudeDGPSDM.mWGS84
LongitudeDGPSDM.mWGS84
HeadingGyrodeg 
SOGDGPSknotsSpeed over ground
COGDGPSdegCourse over ground
DepthEcho soundermeters200 kHz
Missing or incorrect values are displayed as -999
Navigation data collected by the RV Zeeleeuw from 2005-11-28 07:21:17 to 2005-11-28 14:53:13
Time Latitude Longitude Heading SOG COG Depth
2005-11-28 07:22:22 51°13.581 2°56.136 127.4 -999 48 8.7
2005-11-28 07:23:22 51°13.581 2°56.136 127.3 0.1 275 8.6
2005-11-28 07:24:22 51°13.582 2°56.137 127.5 0.1 123 8.7
2005-11-28 07:25:22 51°13.582 2°56.136 127.5 0.1 305 9
2005-11-28 07:26:22 51°13.582 2°56.136 127.7 0.1 302 9.3
2005-11-28 07:27:22 51°13.581 2°56.137 127.8 -999 124 9
2005-11-28 07:28:22 51°13.581 2°56.138 127.9 -999 315 8.7
2005-11-28 07:29:22 51°13.58 2°56.137 126.5 0.1 257 9
2005-11-28 07:30:23 51°13.58 2°56.136 125.4 -999 151 -999
2005-11-28 07:31:22 51°13.58 2°56.136 127.9 0.1 143 8.6
2005-11-28 07:32:22 51°13.581 2°56.137 127.5 -999 49 8.7
2005-11-28 07:33:22 51°13.581 2°56.137 127.3 -999 288 8.8
2005-11-28 07:34:22 51°13.58 2°56.136 127.5 0.2 124 8.7
2005-11-28 07:35:22 51°13.58 2°56.136 126.2 -999 110 8.7
2005-11-28 07:36:22 51°13.58 2°56.137 119 -999 208 8.9
2005-11-28 07:37:22 51°13.584 2°56.116 111.9 2.4 289 -999
2005-11-28 07:38:23 51°13.613 2°56.02 119.8 4.6 296 -999
2005-11-28 07:39:23 51°13.656 2°55.907 125.8 5.2 303 -999
2005-11-28 07:40:22 51°13.688 2°55.794 105.9 4.2 287 -999
2005-11-28 07:41:23 51°13.696 2°55.744 61.7 0.8 33 -999
2005-11-28 07:42:22 51°13.743 2°55.728 329.7 5 326 10.5
2005-11-28 07:43:22 51°13.855 2°55.617 336.7 9.1 332 11.4
2005-11-28 07:44:22 51°14.004 2°55.51 342 10 338 -999
2005-11-28 07:45:23 51°14.155 2°55.399 337.4 9.9 332 -999
2005-11-28 07:46:22 51°14.28 2°55.23 317.3 10.1 312 11.7
2005-11-28 07:47:22 51°14.398 2°55.013 317.1 11.3 315 11.7
2005-11-28 07:48:22 51°14.55 2°54.841 334.5 11.2 335 11.4
2005-11-28 07:49:22 51°14.73 2°54.721 339.2 12 337 11.2
2005-11-28 07:50:22 51°14.917 2°54.595 338.7 12.3 337 10.5
2005-11-28 07:51:22 51°15.105 2°54.465 338.2 12.2 336 10.1
2005-11-28 07:52:22 51°15.277 2°54.293 328.8 12.1 326 10.6
2005-11-28 07:53:22 51°15.445 2°54.113 329.5 12.2 326 11.3
2005-11-28 07:54:22 51°15.614 2°53.936 330.2 12.2 326 12.1
2005-11-28 07:55:22 51°15.783 2°53.763 330.9 12 328 12.7
2005-11-28 07:56:22 51°15.953 2°53.587 330.4 12.2 327 13.1
2005-11-28 07:57:22 51°16.122 2°53.414 330.2 12.3 327 13.6
2005-11-28 07:58:22 51°16.3 2°53.266 337.5 11.6 334 13.5
2005-11-28 07:59:22 51°16.478 2°53.118 335.8 12.3 334 13.6
2005-11-28 08:00:22 51°16.66 2°52.977 337 12.1 334 13.1
2005-11-28 08:01:22 51°16.839 2°52.835 337.5 11.9 334 11
2005-11-28 08:02:22 51°17.016 2°52.699 337.3 11.9 335 11.7
2005-11-28 08:03:22 51°17.193 2°52.553 334.4 11.9 331 11.8
2005-11-28 08:04:22 51°17.363 2°52.384 329.6 12 324 12.1
2005-11-28 08:05:22 51°17.506 2°52.167 313 11.9 307 12.4
2005-11-28 08:06:22 51°17.606 2°51.897 303.4 11.6 297 12.3
2005-11-28 08:07:22 51°17.698 2°51.623 302.8 11.9 298 11.7
2005-11-28 08:08:22 51°17.784 2°51.342 301.6 11.8 296 12.2
2005-11-28 08:09:22 51°17.872 2°51.061 301.6 11.9 296 13.1
2005-11-28 08:10:22 51°17.957 2°50.781 301.2 11.7 296 14.3
2005-11-28 08:11:22 51°18.044 2°50.501 302.4 11.8 296 15
2005-11-28 08:12:22 51°18.131 2°50.219 302.3 11.9 296 16.1
2005-11-28 08:13:22 51°18.219 2°49.937 299.9 12.1 294 16.1
2005-11-28 08:14:22 51°18.302 2°49.646 299.3 11.9 296 15.3
2005-11-28 08:15:22 51°18.38 2°49.364 298.3 11.7 293 13.7
2005-11-28 08:16:22 51°18.459 2°49.083 298.9 11.5 294 12.8
2005-11-28 08:17:22 51°18.538 2°48.803 299.3 11.6 296 12.9
2005-11-28 08:18:22 51°18.616 2°48.527 299.5 11.4 296 14.1
2005-11-28 08:19:22 51°18.697 2°48.246 299.3 11.6 295 15.9
2005-11-28 08:20:22 51°18.777 2°47.96 298.4 11.8 294 17.4
2005-11-28 08:21:22 51°18.856 2°47.676 299.7 11.7 293 20
2005-11-28 08:22:22 51°18.935 2°47.388 298.8 12.1 294 21.1
2005-11-28 08:23:22 51°19.011 2°47.094 298.9 12 292 22.7
2005-11-28 08:24:22 51°19.094 2°46.802 300.1 12 295 23.2
2005-11-28 08:25:22 51°19.176 2°46.509 298.8 12 294 23.6
2005-11-28 08:26:22 51°19.259 2°46.223 298 11.8 295 21.8
2005-11-28 08:27:22 51°19.337 2°45.934 295.9 11.7 295 19.7
2005-11-28 08:28:22 51°19.414 2°45.645 295.9 11.8 293 16
2005-11-28 08:29:22 51°19.488 2°45.361 295.4 11.8 294 13.5
2005-11-28 08:30:22 51°19.563 2°45.076 296.2 11.6 292 19.9
2005-11-28 08:31:22 51°19.64 2°44.788 295.7 11.8 293 24
2005-11-28 08:32:22 51°19.717 2°44.501 296.5 12.1 293 25.2
2005-11-28 08:33:22 51°19.794 2°44.21 296.1 11.9 293 25.9
2005-11-28 08:34:22 51°19.875 2°43.918 296.1 11.9 294 25.9
2005-11-28 08:35:22 51°19.953 2°43.629 296.2 11.9 294 28.9
2005-11-28 08:36:22 51°20.034 2°43.338 296.3 12.1 296 28.5
2005-11-28 08:37:22 51°20.113 2°43.051 296.8 11.9 294 28.6
2005-11-28 08:38:22 51°20.191 2°42.766 295.4 11.8 292 27.3
2005-11-28 08:39:22 51°20.27 2°42.482 296.1 11.7 294 25.8
2005-11-28 08:40:22 51°20.35 2°42.198 296.6 11.7 295 20
2005-11-28 08:41:22 51°20.421 2°41.913 288.5 11.5 287 20.2
2005-11-28 08:42:22 51°20.469 2°41.617 286.9 11.6 286 23.2
2005-11-28 08:43:22 51°20.52 2°41.318 287.4 11.6 286 24.9
2005-11-28 08:44:22 51°20.553 2°41.012 279.4 11.8 277 30.1
2005-11-28 08:45:22 51°20.579 2°40.703 279.7 11.6 278 28.9
2005-11-28 08:46:22 51°20.604 2°40.395 278.3 11.6 277 28.5
2005-11-28 08:47:22 51°20.627 2°40.087 280 11.8 280 29
2005-11-28 08:48:22 51°20.653 2°39.774 278.9 11.7 277 27.9
2005-11-28 08:49:22 51°20.672 2°39.464 273.1 11.7 269 28
2005-11-28 08:50:22 51°20.663 2°39.154 269.5 11.8 270 27.3
2005-11-28 08:51:22 51°20.655 2°38.844 270.4 11.7 268 26.4
2005-11-28 08:52:22 51°20.648 2°38.532 269.4 11.7 266 26.1
2005-11-28 08:53:22 51°20.653 2°38.223 273.7 11.5 271 24.7
2005-11-28 08:54:22 51°20.662 2°37.916 274.5 11.5 274 24.6
2005-11-28 08:55:22 51°20.672 2°37.61 274.1 11.6 273 25.5
2005-11-28 08:56:22 51°20.682 2°37.304 274.5 11.5 275 25.8
2005-11-28 08:57:22 51°20.702 2°36.998 280.3 11.5 279 24.9
2005-11-28 08:58:22 51°20.75 2°36.702 285.9 11.6 284 23.6
2005-11-28 08:59:22 51°20.802 2°36.405 285.6 11.7 286 24.9
2005-11-28 09:00:22 51°20.854 2°36.108 286.8 11.5 287 25.4
2005-11-28 09:01:22 51°20.913 2°35.813 287.3 11.7 288 29
2005-11-28 09:02:22 51°20.971 2°35.514 287 11.9 288 33
2005-11-28 09:03:22 51°21.032 2°35.217 288 11.6 287 32.4
2005-11-28 09:04:22 51°21.082 2°34.922 283.3 11.6 283 33.8
2005-11-28 09:05:22 51°21.14 2°34.629 295.1 11.7 298 33.3
2005-11-28 09:06:22 51°21.263 2°34.388 314.3 12 318 33.2
2005-11-28 09:07:22 51°21.451 2°34.258 341.7 12.4 344 32.4
2005-11-28 09:08:22 51°21.651 2°34.16 341.3 12.6 341 32.5
2005-11-28 09:09:22 51°21.849 2°34.054 339.2 12.5 340 31.6
2005-11-28 09:10:22 51°22.048 2°33.945 340 12.6 341 26.6
2005-11-28 09:11:22 51°22.245 2°33.836 338.8 12.3 340 27.7
2005-11-28 09:12:22 51°22.437 2°33.717 333.7 12.1 334 32.7
2005-11-28 09:13:22 51°22.598 2°33.529 320.3 12 321 33.4
2005-11-28 09:14:22 51°22.725 2°33.291 302 11.7 302 33.3
2005-11-28 09:15:22 51°22.81 2°33.011 290.1 11.6 288 33.7
2005-11-28 09:16:22 51°22.828 2°32.711 273.5 11.4 272 33.8
2005-11-28 09:17:22 51°22.825 2°32.41 267.8 11.4 267 31.8
2005-11-28 09:18:22 51°22.811 2°32.109 268 11.4 265 33.7
2005-11-28 09:19:22 51°22.801 2°31.806 267.7 11.4 268 33.8
2005-11-28 09:20:22 51°22.789 2°31.508 268.5 11.2 265 33.1
2005-11-28 09:21:22 51°22.778 2°31.208 268.4 11.1 266 32.3
2005-11-28 09:22:22 51°22.768 2°30.907 268.2 11.4 265 31.3
2005-11-28 09:23:22 51°22.752 2°30.609 266.3 11.1 264 32.1
2005-11-28 09:24:22 51°22.735 2°30.31 266.7 11.4 266 33.2
2005-11-28 09:25:22 51°22.719 2°30.008 267.5 11.3 265 35
2005-11-28 09:26:22 51°22.702 2°29.709 267.7 11.4 265 35.3
2005-11-28 09:27:22 51°22.685 2°29.409 267.8 11.2 267 34.9
2005-11-28 09:28:22 51°22.667 2°29.109 266.8 11.5 263 36
2005-11-28 09:29:22 51°22.659 2°28.806 270 11.4 263 35.7
2005-11-28 09:30:22 51°22.653 2°28.503 270.4 11.4 267 35.4
2005-11-28 09:31:22 51°22.645 2°28.202 269.3 11.3 266 37.8
2005-11-28 09:32:22 51°22.637 2°27.901 270.7 11.4 266 36.9
2005-11-28 09:33:22 51°22.639 2°27.598 274.8 11.4 271 37.5
2005-11-28 09:34:22 51°22.642 2°27.296 271.8 11.4 270 36.7
2005-11-28 09:35:22 51°22.645 2°26.995 273.2 11.3 273 36
2005-11-28 09:36:22 51°22.649 2°26.694 271.1 11.3 270 35.2
2005-11-28 09:37:22 51°22.65 2°26.396 272.2 11.3 269 35.2
2005-11-28 09:38:22 51°22.651 2°26.094 272.5 11.4 271 32
2005-11-28 09:39:22 51°22.669 2°25.799 286.8 11.3 288 23.4
2005-11-28 09:40:22 51°22.806 2°25.586 327.3 12.1 334 23.1
2005-11-28 09:41:22 51°23.016 2°25.537 358.2 13.1 359 30.3
2005-11-28 09:42:22 51°23.235 2°25.536 359.2 13.3 359 33.8
2005-11-28 09:43:22 51°23.453 2°25.544 2.5 13.4 4 35.4
2005-11-28 09:44:22 51°23.674 2°25.557 2.3 13.2 3 36.2
2005-11-28 09:45:22 51°23.896 2°25.57 1.4 13.4 3 35.5
2005-11-28 09:46:22 51°24.12 2°25.583 2 13.6 3 36
2005-11-28 09:47:22 51°24.343 2°25.599 2.9 13.6 3 35.6
2005-11-28 09:48:22 51°24.567 2°25.615 2 13.4 2 38.4
2005-11-28 09:49:22 51°24.791 2°25.618 -999 13.4 -999 36.9
2005-11-28 09:50:22 51°25.016 2°25.623 -999 13.5 359 36.7
2005-11-28 09:51:22 51°25.242 2°25.626 -999 13.5 -999 35.7
2005-11-28 09:52:22 51°25.466 2°25.629 0.6 13.4 1 35.6
2005-11-28 09:53:21 51°25.685 2°25.629 1.1 13.4 -999 33.2
2005-11-28 09:54:21 51°25.906 2°25.635 0.3 13.3 -999 29.8
2005-11-28 09:55:22 51°26.132 2°25.639 2.1 13.3 2 29
2005-11-28 09:56:21 51°26.348 2°25.649 0.2 13.6 -999 29.1
2005-11-28 09:57:23 51°26.58 2°25.651 359.9 13.5 1 34.3
2005-11-28 09:58:23 51°26.802 2°25.655 -999 13.5 -999 35.6
2005-11-28 09:59:21 51°27.02 2°25.656 0.7 13.3 2 36.4
2005-11-28 10:00:23 51°27.249 2°25.66 0.5 13.5 -999 36.5
2005-11-28 10:01:21 51°27.466 2°25.664 0.1 13.5 1 36.9
2005-11-28 10:02:23 51°27.697 2°25.669 -999 13.5 -999 36.8
2005-11-28 10:03:21 51°27.916 2°25.675 359.7 13.6 3 37
2005-11-28 10:04:21 51°28.14 2°25.677 0.8 13.5 1 38.6
2005-11-28 10:05:23 51°28.372 2°25.681 0.2 13.4 1 38.1
2005-11-28 10:06:21 51°28.588 2°25.685 -999 13.4 -999 38.2
2005-11-28 10:07:21 51°28.811 2°25.685 -999 13.5 1 36.1
2005-11-28 10:08:21 51°29.034 2°25.686 0.8 13.4 1 35.6
2005-11-28 10:09:21 51°29.254 2°25.685 359.2 13.2 354 31.5
2005-11-28 10:10:21 51°29.447 2°25.556 330 12.8 331 30.4
2005-11-28 10:11:23 51°29.64 2°25.387 330.2 12.7 331 30.8
2005-11-28 10:12:23 51°29.809 2°25.19 321.3 12.6 324 32.9
2005-11-28 10:13:21 51°29.971 2°24.993 322.2 12.5 323 39.6
2005-11-28 10:14:23 51°30.159 2°24.834 346.5 12.9 354 41.2
2005-11-28 10:15:21 51°30.369 2°24.926 21.7 13.9 22 41.9
2005-11-28 10:16:21 51°30.581 2°25.074 26.5 14 23 41.3
2005-11-28 10:17:21 51°30.79 2°25.242 28.5 13.8 25 40.8
2005-11-28 10:18:21 51°30.998 2°25.412 29.1 14 27 41.9
2005-11-28 10:19:21 51°31.206 2°25.581 28.5 13.8 27 42.3
2005-11-28 10:20:21 51°31.411 2°25.752 29.9 14 26 41.1
2005-11-28 10:21:23 51°31.623 2°25.936 32.3 14.1 31 40.3
2005-11-28 10:22:21 51°31.821 2°26.118 32.7 14.2 32 42.3
2005-11-28 10:23:21 51°32.023 2°26.302 32.6 14.1 27 41.3
2005-11-28 10:24:21 51°32.227 2°26.489 32.7 14.1 28 39.3
2005-11-28 10:25:21 51°32.434 2°26.675 32.6 14.1 30 39.1
2005-11-28 10:26:21 51°32.636 2°26.866 33.6 14.2 30 39.9
2005-11-28 10:27:21 51°32.84 2°27.06 33.1 14.2 31 40.1
2005-11-28 10:28:23 51°33.045 2°27.261 35.5 14.1 34 38.2
2005-11-28 10:29:22 51°33.241 2°27.457 32.6 14 31 38.2
2005-11-28 10:30:23 51°33.446 2°27.656 34.7 14.2 31 39.5
2005-11-28 10:31:21 51°33.643 2°27.847 33.6 14.3 31 36.9
2005-11-28 10:32:21 51°33.845 2°28.043 33.7 14.3 34 37.6
2005-11-28 10:33:21 51°34.045 2°28.24 34.8 13.9 32 37.9
2005-11-28 10:34:23 51°34.25 2°28.441 34.3 13.9 32 36.2
2005-11-28 10:35:21 51°34.441 2°28.631 33.4 14.1 31 38.1
2005-11-28 10:36:23 51°34.652 2°28.834 33.6 14.1 30 32.2
2005-11-28 10:37:23 51°34.853 2°29.028 34 14.3 31 36.3
2005-11-28 10:38:21 51°35.052 2°29.219 33.4 14.2 32 37.2
2005-11-28 10:39:21 51°35.251 2°29.415 34.6 14.2 32 34.8
2005-11-28 10:40:21 51°35.45 2°29.613 34.8 14.1 30 32.1
2005-11-28 10:41:23 51°35.661 2°29.814 34.3 14.3 33 37.9
2005-11-28 10:42:21 51°35.854 2°30.003 34.5 14 31 37.9
2005-11-28 10:43:21 51°36.052 2°30.198 34.5 14 31 36.2
2005-11-28 10:44:21 51°36.252 2°30.396 34.3 13.9 32 37.1
2005-11-28 10:45:23 51°36.46 2°30.594 33.9 14.1 31 37.8
2005-11-28 10:46:23 51°36.662 2°30.788 34.8 13.9 32 37.2
2005-11-28 10:47:22 51°36.857 2°30.979 34.5 14.1 31 39
2005-11-28 10:48:23 51°37.063 2°31.174 34.9 14.1 29 39.8
2005-11-28 10:49:21 51°37.257 2°31.365 33.8 14.1 31 40.8
2005-11-28 10:50:21 51°37.457 2°31.56 34.1 14.2 30 40.7
2005-11-28 10:51:21 51°37.658 2°31.756 34.5 14 30 40.5
2005-11-28 10:52:21 51°37.86 2°31.95 33.8 14.2 33 41.5
2005-11-28 10:53:23 51°38.071 2°32.153 33.2 14.3 31 41.4
2005-11-28 10:54:21 51°38.266 2°32.342 33.3 14.2 30 42.6
2005-11-28 10:55:23 51°38.47 2°32.542 33.9 14.2 31 42.9
2005-11-28 10:56:21 51°38.666 2°32.729 33.6 14.2 32 43.3
2005-11-28 10:57:23 51°38.875 2°32.932 34.6 14.2 31 40.5
2005-11-28 10:58:23 51°39.075 2°33.132 34.8 14.5 32 42.3
2005-11-28 10:59:23 51°39.281 2°33.327 33.9 14.1 32 41.3
2005-11-28 11:00:21 51°39.475 2°33.519 34.5 14.1 32 42.4
2005-11-28 11:01:23 51°39.686 2°33.723 33.3 14.3 31 42.5
2005-11-28 11:02:23 51°39.89 2°33.918 34.7 14.4 31 43
2005-11-28 11:03:21 51°40.088 2°34.107 34 14.1 32 39.2
2005-11-28 11:04:23 51°40.298 2°34.313 35.4 14.1 31 38.7
2005-11-28 11:05:23 51°40.502 2°34.509 34.4 14.4 32 37.9
2005-11-28 11:06:23 51°40.707 2°34.708 34 14.2 29 37.7
2005-11-28 11:07:21 51°40.904 2°34.898 34.5 14.5 34 36.3
2005-11-28 11:08:23 51°41.113 2°35.104 34.1 14.3 32 33
2005-11-28 11:09:23 51°41.313 2°35.313 40.4 14.2 39 35.5
2005-11-28 11:10:23 51°41.427 2°35.637 83.5 14 77 31.3
2005-11-28 11:11:23 51°41.386 2°35.989 124.7 13.4 112 23.2
2005-11-28 11:12:21 51°41.297 2°36.305 127 13.6 113 21.4
2005-11-28 11:13:21 51°41.199 2°36.631 124.8 13.4 117 27.8
2005-11-28 11:14:21 51°41.101 2°36.953 126 13.5 114 34.7
2005-11-28 11:15:21 51°41.004 2°37.272 125.3 13.3 117 35.5
2005-11-28 11:16:21 51°40.906 2°37.586 126.9 13.4 112 40.3
2005-11-28 11:17:23 51°40.803 2°37.911 125.8 13.4 118 41.7
2005-11-28 11:18:23 51°40.704 2°38.225 130.1 13.8 113 39.4
2005-11-28 11:19:21 51°40.611 2°38.529 127.4 13.1 114 38.8
2005-11-28 11:20:23 51°40.507 2°38.854 128.5 13 116 41.2
2005-11-28 11:21:21 51°40.413 2°39.152 127.7 13.2 113 44.3
2005-11-28 11:22:23 51°40.308 2°39.469 129 12.6 117 41.1
2005-11-28 11:23:23 51°40.202 2°39.773 128.3 13 120 41.2
2005-11-28 11:24:23 51°40.088 2°40.068 133.1 13.2 123 41.7
2005-11-28 11:25:23 51°39.973 2°40.364 132 13.3 124 37.1
2005-11-28 11:26:23 51°39.86 2°40.667 132 13.3 118 35.8
2005-11-28 11:27:23 51°39.743 2°40.959 135.6 13.1 125 31.2
2005-11-28 11:28:23 51°39.618 2°41.237 134.4 12.7 124 30.1
2005-11-28 11:29:23 51°39.487 2°41.513 140.8 12.7 134 27.8
2005-11-28 11:30:23 51°39.343 2°41.763 144.3 12.8 134 25.9
2005-11-28 11:31:21 51°39.189 2°41.976 152.2 12.2 147 25.6
2005-11-28 11:32:21 51°39.019 2°42.171 158.5 12.4 155 28.9
2005-11-28 11:33:23 51°38.821 2°42.26 174.9 12.1 169 29.5
2005-11-28 11:34:23 51°38.627 2°42.336 174.7 12 167 34.3
2005-11-28 11:35:23 51°38.433 2°42.412 176.1 12.2 168 35.3
2005-11-28 11:36:23 51°38.239 2°42.486 175.4 11.9 170 36.2
2005-11-28 11:37:23 51°38.045 2°42.554 176.1 12 168 36.7
2005-11-28 11:38:23 51°37.851 2°42.624 173.1 11.7 166 37.9
2005-11-28 11:39:21 51°37.666 2°42.706 172.7 12.3 166 37.2
2005-11-28 11:40:23 51°37.467 2°42.76 180.5 11.7 173 38
2005-11-28 11:41:21 51°37.285 2°42.72 205.9 11.3 210 38.3
2005-11-28 11:42:23 51°37.202 2°42.458 266.3 11.5 275 38.2
2005-11-28 11:43:23 51°37.227 2°42.145 277.6 11.9 278 36.4
2005-11-28 11:44:23 51°37.256 2°41.831 277.8 11.9 279 34.5
2005-11-28 11:45:23 51°37.284 2°41.52 278.3 11.7 278 25.4
2005-11-28 11:46:21 51°37.315 2°41.224 278 11.4 281 19.2
2005-11-28 11:47:23 51°37.349 2°40.909 277.8 11.6 281 21.3
2005-11-28 11:48:21 51°37.375 2°40.611 274.8 11.8 277 22.8
2005-11-28 11:49:23 51°37.404 2°40.287 276 11.7 277 28.5
2005-11-28 11:50:23 51°37.431 2°39.975 276 12.1 276 33.6
2005-11-28 11:51:23 51°37.449 2°39.659 273.5 12 273 38.1
2005-11-28 11:52:23 51°37.458 2°39.344 269.5 11.9 274 40.2
2005-11-28 11:53:21 51°37.461 2°39.04 269.7 11.8 269 40.2
2005-11-28 11:54:23 51°37.467 2°38.715 269.5 11.8 274 41.8
2005-11-28 11:55:21 51°37.475 2°38.411 270 11.7 274 38.5
2005-11-28 11:56:23 51°37.482 2°38.085 271.3 11.9 273 38.8
2005-11-28 11:57:23 51°37.49 2°37.766 270.4 11.8 270 37.8
2005-11-28 11:58:23 51°37.497 2°37.451 270.2 11.7 271 40.9
2005-11-28 11:59:23 51°37.501 2°37.137 269.2 11.8 271 39.8
2005-11-28 12:00:23 51°37.508 2°36.818 269.9 12 271 41.4
2005-11-28 12:01:23 51°37.514 2°36.5 270.1 11.8 271 40.2
2005-11-28 12:02:23 51°37.519 2°36.183 270 11.9 274 38.9
2005-11-28 12:03:23 51°37.522 2°35.866 270.6 11.8 271 39
2005-11-28 12:04:23 51°37.525 2°35.55 269 11.9 269 37.7
2005-11-28 12:05:23 51°37.528 2°35.233 271.3 11.8 272 35.4
2005-11-28 12:06:23 51°37.533 2°34.916 269.6 11.8 271 28.4
2005-11-28 12:07:23 51°37.539 2°34.602 270.4 11.7 270 22.7
2005-11-28 12:08:23 51°37.493 2°34.331 235 10.4 226 18.1
2005-11-28 12:09:23 51°37.361 2°34.125 224.2 11.3 225 28.6
2005-11-28 12:10:23 51°37.225 2°33.92 226.7 10.9 221 30.4
2005-11-28 12:11:21 51°37.063 2°33.803 205.6 11.5 195 31.3
2005-11-28 12:12:23 51°36.882 2°33.688 208.5 11.1 198 31.1
2005-11-28 12:13:21 51°36.714 2°33.576 205.9 11.1 200 33.5
2005-11-28 12:14:23 51°36.532 2°33.457 207.1 11.8 205 34.6
2005-11-28 12:15:23 51°36.358 2°33.343 207.3 10.9 205 35.6
2005-11-28 12:16:23 51°36.183 2°33.227 206.3 11.2 205 35.4
2005-11-28 12:17:20 51°13.206 2°52.909 127.8 -999 -999 -999
2005-11-28 12:17:50 51°13.206 2°52.909 127.8 -999 -999 -999
2005-11-28 12:18:43 51°35.773 2°32.955 206.6 11.2 198 37.3
2005-11-28 12:19:43 51°35.592 2°32.87 201 11.4 196 37.5
2005-11-28 12:20:43 51°35.41 2°32.791 201.6 11.1 198 36.9
2005-11-28 12:21:43 51°35.227 2°32.704 200.3 11.9 194 36.5
2005-11-28 12:22:43 51°35.045 2°32.629 200.7 11.3 196 35.4
2005-11-28 12:23:43 51°34.862 2°32.542 201.5 11.3 191 33.2
2005-11-28 12:24:43 51°34.677 2°32.454 200.3 11.7 196 32.2
2005-11-28 12:25:41 51°34.498 2°32.368 200.9 11.6 196 29
2005-11-28 12:26:43 51°34.305 2°32.278 200.1 11.1 193 29
2005-11-28 12:27:41 51°34.12 2°32.21 198.8 11.9 193 27.9
2005-11-28 12:28:43 51°33.92 2°32.145 196.2 12.1 191 26.6
2005-11-28 12:29:41 51°33.731 2°32.094 193.2 12 188 29.4
2005-11-28 12:30:43 51°33.527 2°32.052 192.9 11.8 190 27.4
2005-11-28 12:31:41 51°33.339 2°32.009 191.4 12.1 190 27
2005-11-28 12:32:43 51°33.136 2°31.961 194.5 11.6 193 29.5
2005-11-28 12:33:43 51°32.939 2°31.912 193 12.2 187 26.9
2005-11-28 12:34:43 51°32.746 2°31.864 193.4 11.9 188 24.8
2005-11-28 12:35:43 51°32.551 2°31.816 192.8 11.6 186 24.3
2005-11-28 12:36:43 51°32.356 2°31.78 187.6 11.8 189 27.3
2005-11-28 12:37:43 51°32.16 2°31.781 180.8 11.9 176 30
2005-11-28 12:38:43 51°31.962 2°31.813 178.9 12.1 173 32
2005-11-28 12:39:43 51°31.764 2°31.85 177.2 11.9 172 35.4
2005-11-28 12:40:41 51°31.573 2°31.912 175.2 12.1 169 36.8
2005-11-28 12:41:43 51°31.371 2°31.977 176.1 12.1 169 36.5
2005-11-28 12:42:43 51°31.177 2°32.043 174.3 12 164 35.1
2005-11-28 12:43:43 51°30.996 2°32.176 154.9 12.1 147 35.6
2005-11-28 12:44:43 51°30.823 2°32.35 156.9 12.2 150 35.6
2005-11-28 12:45:43 51°30.646 2°32.513 155.8 12.1 151 33.2
2005-11-28 12:46:43 51°30.468 2°32.675 157.6 12.4 150 29.1
2005-11-28 12:47:41 51°30.294 2°32.834 158.8 12.5 146 23.8
2005-11-28 12:48:43 51°30.108 2°32.994 158.2 12.4 152 23.3
2005-11-28 12:49:41 51°29.933 2°33.149 158.2 12.3 154 22.4
2005-11-28 12:50:43 51°29.747 2°33.323 153.1 12.4 142 19.7
2005-11-28 12:51:43 51°29.654 2°33.628 113.7 13.1 108 18.2
2005-11-28 12:52:43 51°29.62 2°33.981 103.5 13.4 102 26.9
2005-11-28 12:53:43 51°29.589 2°34.333 103.9 13.3 95 38.2
2005-11-28 12:54:43 51°29.558 2°34.682 105 13.3 97 39.3
2005-11-28 12:55:43 51°29.53 2°35.032 103.5 13.3 102 40.2
2005-11-28 12:56:43 51°29.509 2°35.387 101.7 13.2 96 37.5
2005-11-28 12:57:43 51°29.498 2°35.743 99.8 13.4 89 35.6
2005-11-28 12:58:43 51°29.5 2°36.1 96.9 13.5 92 32.9
2005-11-28 12:59:43 51°29.502 2°36.456 96.6 13.4 88 29.7
2005-11-28 13:00:43 51°29.501 2°36.814 97.9 13.4 89 27.8
2005-11-28 13:01:43 51°29.498 2°37.171 96.7 13.7 90 28.1
2005-11-28 13:02:43 51°29.423 2°37.473 143.3 11.9 142 35.7
2005-11-28 13:03:43 51°29.239 2°37.62 162.1 12.6 154 37.2
2005-11-28 13:04:43 51°29.051 2°37.756 163 12.3 153 37.1
2005-11-28 13:05:43 51°28.857 2°37.882 162.1 12.3 158 36.1
2005-11-28 13:06:43 51°28.669 2°38.02 161.2 12.3 156 37.1
2005-11-28 13:07:43 51°28.478 2°38.151 163.5 12.2 157 36.7
2005-11-28 13:08:43 51°28.29 2°38.284 162.9 12.3 157 35.5
2005-11-28 13:09:43 51°28.102 2°38.415 163.3 12.2 158 35.3
2005-11-28 13:10:43 51°27.914 2°38.543 165.4 12.1 163 33
2005-11-28 13:11:43 51°27.72 2°38.649 166 12.2 158 33.2
2005-11-28 13:12:43 51°27.527 2°38.758 165 12.4 157 32.8
2005-11-28 13:13:43 51°27.333 2°38.868 168.3 12.3 160 34.5
2005-11-28 13:14:43 51°27.14 2°38.974 167.2 12.5 159 35.1
2005-11-28 13:15:43 51°26.947 2°39.08 168.2 12.6 161 33.5
2005-11-28 13:16:43 51°26.757 2°39.19 165.3 12.1 158 32.5
2005-11-28 13:17:43 51°26.566 2°39.3 165.7 12.2 163 35.5
2005-11-28 13:18:43 51°26.374 2°39.411 168 12.3 163 34
2005-11-28 13:19:43 51°26.179 2°39.515 168.3 12.4 165 34.9
2005-11-28 13:20:43 51°25.983 2°39.61 170.6 12.1 160 32.5
2005-11-28 13:21:43 51°25.784 2°39.696 169.7 12.4 160 31.7
2005-11-28 13:22:43 51°25.585 2°39.78 170.7 12.6 166 30.5
2005-11-28 13:23:43 51°25.383 2°39.865 171.2 12.4 171 29.7
2005-11-28 13:24:43 51°25.183 2°39.949 172.1 12.5 164 26.6
2005-11-28 13:25:43 51°24.984 2°40.026 171.3 12.2 165 28.5
2005-11-28 13:26:43 51°24.786 2°40.112 171.7 12.1 168 27.1
2005-11-28 13:27:43 51°24.586 2°40.194 172 12.4 162 26.3
2005-11-28 13:28:43 51°24.389 2°40.278 169.4 11.7 166 23.9
2005-11-28 13:29:43 51°24.191 2°40.358 170.5 12 165 26.4
2005-11-28 13:30:43 51°23.988 2°40.428 173 12.9 170 26.3
2005-11-28 13:31:43 51°23.784 2°40.484 175.6 12.4 171 28.5
2005-11-28 13:32:43 51°23.58 2°40.538 172.4 12.5 169 30.1
2005-11-28 13:33:43 51°23.377 2°40.587 179.8 12.4 175 29.6
2005-11-28 13:34:43 51°23.172 2°40.578 185 12.5 176 30
2005-11-28 13:35:43 51°22.967 2°40.572 185.6 12.2 179 29.8
2005-11-28 13:36:43 51°22.759 2°40.561 184.5 12.6 184 29.7
2005-11-28 13:37:43 51°22.553 2°40.553 184.1 12.4 182 29.9
2005-11-28 13:38:43 51°22.347 2°40.544 183.2 12.5 180 29.9
2005-11-28 13:39:43 51°22.14 2°40.533 185 12.6 181 28.4
2005-11-28 13:40:43 51°21.932 2°40.532 181.2 12.8 181 27.6
2005-11-28 13:41:43 51°21.728 2°40.569 170.9 12.6 171 27.1
2005-11-28 13:42:43 51°21.524 2°40.628 171.9 12 169 28
2005-11-28 13:43:43 51°21.321 2°40.688 173.6 12.4 171 27
2005-11-28 13:44:43 51°21.117 2°40.745 172.9 12.7 167 26.3
2005-11-28 13:45:43 51°20.936 2°40.884 143.4 12.7 138 26.5
2005-11-28 13:46:43 51°20.791 2°41.133 133.6 13.3 122 26.8
2005-11-28 13:47:43 51°20.679 2°41.424 125.2 12.8 126 25.8
2005-11-28 13:48:43 51°20.566 2°41.707 125.5 12.7 120 20.8
2005-11-28 13:49:43 51°20.451 2°41.991 129.7 13 125 18.6
2005-11-28 13:50:43 51°20.341 2°42.281 125 12.8 118 19.2
2005-11-28 13:51:43 51°20.231 2°42.572 123.9 13 119 23.7
2005-11-28 13:52:43 51°20.124 2°42.866 125.5 12.7 124 25.6
2005-11-28 13:53:43 51°20.019 2°43.164 121.9 12.8 118 26.5
2005-11-28 13:54:43 51°19.916 2°43.464 122.8 12.9 118 26.7
2005-11-28 13:55:43 51°19.811 2°43.76 123.1 13 122 24.3
2005-11-28 13:56:43 51°19.707 2°44.054 125.5 12.8 127 24.5
2005-11-28 13:57:43 51°19.604 2°44.359 123 13 120 22.8
2005-11-28 13:58:43 51°19.5 2°44.661 124.5 12.9 117 21.8
2005-11-28 13:59:43 51°19.391 2°44.952 123.9 12.7 121 16.6
2005-11-28 14:00:43 51°19.289 2°45.239 121.6 12.4 121 10.5
2005-11-28 14:01:43 51°19.184 2°45.525 124.9 12.5 124 16
2005-11-28 14:02:43 51°19.076 2°45.813 122.6 12.7 116 19.1
2005-11-28 14:03:43 51°18.969 2°46.103 120.8 12.5 122 20.8
2005-11-28 14:04:43 51°18.865 2°46.398 122.4 12.6 121 21.2
2005-11-28 14:05:43 51°18.759 2°46.694 120.4 12.7 117 20.3
2005-11-28 14:06:43 51°18.654 2°46.986 123.8 12.3 118 17.4
2005-11-28 14:07:43 51°18.548 2°47.28 124.1 12.9 119 17.5
2005-11-28 14:08:43 51°18.44 2°47.563 121.2 12.3 122 15.1
2005-11-28 14:09:43 51°18.334 2°47.853 123.1 12.7 116 13.4
2005-11-28 14:10:43 51°18.231 2°48.142 123.3 12.6 115 11.1
2005-11-28 14:11:43 51°18.124 2°48.428 126.1 12.6 123 10.3
2005-11-28 14:12:43 51°18.019 2°48.712 120.7 12.1 118 10.5
2005-11-28 14:13:43 51°17.917 2°48.997 124.1 12.3 118 11.3
2005-11-28 14:14:43 51°17.831 2°49.301 115.2 12.7 113 12.8
2005-11-28 14:15:43 51°17.752 2°49.606 117.4 12.5 109 13.3
2005-11-28 14:16:43 51°17.666 2°49.909 117.7 12.6 114 13.1
2005-11-28 14:17:43 51°17.586 2°50.22 114.7 12.8 110 12.2
2005-11-28 14:18:43 51°17.502 2°50.526 114.9 12.6 112 10.2
2005-11-28 14:19:43 51°17.418 2°50.824 116.6 11.9 116 9
2005-11-28 14:20:43 51°17.334 2°51.124 119.4 13.1 115 8.9
2005-11-28 14:21:43 51°17.202 2°51.38 137.9 12.9 139 9.9
2005-11-28 14:22:43 51°17.047 2°51.6 140.8 12.2 139 11.3
2005-11-28 14:23:43 51°16.89 2°51.816 141.5 12.3 140 11
2005-11-28 14:24:43 51°16.73 2°52.034 138.4 12.3 138 10.6
2005-11-28 14:25:43 51°16.573 2°52.249 139.8 12.8 139 10.6
2005-11-28 14:26:43 51°16.416 2°52.464 141.6 12.5 139 12
2005-11-28 14:27:43 51°16.242 2°52.646 152.9 13 153 12.1
2005-11-28 14:28:43 51°16.063 2°52.817 150.3 12.6 149 12
2005-11-28 14:29:43 51°15.884 2°52.989 147.3 12.4 146 11.8
2005-11-28 14:30:42 51°15.722 2°53.147 153.4 9 151 11.2
2005-11-28 14:31:43 51°15.571 2°53.292 150.7 11.7 145 10.7
2005-11-28 14:32:43 51°15.394 2°53.462 152.3 12.6 147 10.4
2005-11-28 14:33:43 51°15.219 2°53.644 146.8 12.9 145 9.5
2005-11-28 14:34:42 51°15.056 2°53.841 141.8 12.7 143 9
2005-11-28 14:35:43 51°14.899 2°54.067 135.4 12.1 134 8.9
2005-11-28 14:36:43 51°14.749 2°54.3 137.8 12.9 135 9.4
2005-11-28 14:37:43 51°14.601 2°54.538 141.5 12.9 136 9.9
2005-11-28 14:38:43 51°14.478 2°54.791 127.7 11.7 126 10.1
2005-11-28 14:39:42 51°14.378 2°55.036 124.9 11 123 10.2
2005-11-28 14:40:42 51°14.271 2°55.257 135.9 9 135 10.3
2005-11-28 14:41:43 51°14.168 2°55.381 154.2 7.3 151 -999
2005-11-28 14:42:43 51°14.07 2°55.458 158.5 6.1 155 10.1
2005-11-28 14:43:43 51°13.97 2°55.534 157.6 7.2 153 9.9
2005-11-28 14:44:43 51°13.856 2°55.62 157.2 7.7 154 9.6
2005-11-28 14:45:42 51°13.765 2°55.694 150 5.3 150 9.5
2005-11-28 14:46:43 51°13.705 2°55.781 132 4.4 129 11.5
2005-11-28 14:47:43 51°13.665 2°55.868 132.6 4.3 128 8.7
2005-11-28 14:48:42 51°13.63 2°55.935 133 3.2 130 8.9
2005-11-28 14:49:43 51°13.611 2°55.984 122.2 1.8 113 9.5
2005-11-28 14:50:42 51°13.61 2°56.029 99.7 2 85 9.1
2005-11-28 14:51:43 51°13.611 2°56.07 115.8 0.5 70 7.5
2005-11-28 14:52:43 51°13.603 2°56.095 122 0.7 125 5.8